sensor_id;sensor_type;location;lat;lon;timestamp;P1;durP1;ratioP1;P2;durP2;ratioP2
57655;SDS011;43482;53.334;6.744;2022-11-04T00:01:07;66.22;;;62.85;;
57655;SDS011;43482;53.334;6.744;2022-11-04T00:03:32;68.47;;;65.40;;
57655;SDS011;43482;53.334;6.744;2022-11-04T00:06:01;73.18;;;69.90;;
57655;SDS011;43482;53.334;6.744;2022-11-04T00:08:26;75.50;;;71.80;;
57655;SDS011;43482;53.334;6.744;2022-11-04T00:10:55;67.00;;;63.78;;
57655;SDS011;43482;53.334;6.744;2022-11-04T00:13:40;59.78;;;56.95;;
57655;SDS011;43482;53.334;6.744;2022-11-04T00:16:07;60.97;;;58.05;;
57655;SDS011;43482;53.334;6.744;2022-11-04T00:18:52;62.42;;;59.13;;
57655;SDS011;43482;53.334;6.744;2022-11-04T00:21:18;62.60;;;59.22;;
57655;SDS011;43482;53.334;6.744;2022-11-04T00:24:02;59.42;;;56.72;;
57655;SDS011;43482;53.334;6.744;2022-11-04T00:26:47;56.70;;;54.17;;
57655;SDS011;43482;53.334;6.744;2022-11-04T00:29:31;60.00;;;57.25;;
57655;SDS011;43482;53.334;6.744;2022-11-04T00:31:56;59.25;;;56.78;;
57655;SDS011;43482;53.334;6.744;2022-11-04T00:34:40;62.55;;;59.03;;
57655;SDS011;43482;53.334;6.744;2022-11-04T00:37:05;61.28;;;58.63;;
57655;SDS011;43482;53.334;6.744;2022-11-04T00:39:30;65.43;;;61.97;;
57655;SDS011;43482;53.334;6.744;2022-11-04T00:41:56;64.32;;;61.30;;
57655;SDS011;43482;53.334;6.744;2022-11-04T00:44:21;65.78;;;62.92;;
57655;SDS011;43482;53.334;6.744;2022-11-04T00:46:47;63.80;;;60.72;;
57655;SDS011;43482;53.334;6.744;2022-11-04T00:49:12;69.07;;;65.88;;
57655;SDS011;43482;53.334;6.744;2022-11-04T00:51:37;61.95;;;59.20;;
57655;SDS011;43482;53.334;6.744;2022-11-04T00:54:03;146.63;;;139.77;;
57655;SDS011;43482;53.334;6.744;2022-11-04T00:56:29;75.80;;;72.65;;
57655;SDS011;43482;53.334;6.744;2022-11-04T00:58:54;50.85;;;48.55;;
57655;SDS011;43482;53.334;6.744;2022-11-04T01:01:19;41.33;;;39.55;;
57655;SDS011;43482;53.334;6.744;2022-11-04T01:03:49;42.08;;;40.13;;
57655;SDS011;43482;53.334;6.744;2022-11-04T01:06:17;32.10;;;30.88;;
57655;SDS011;43482;53.334;6.744;2022-11-04T01:08:44;35.47;;;33.92;;
57655;SDS011;43482;53.334;6.744;2022-11-04T01:11:10;34.45;;;33.13;;
57655;SDS011;43482;53.334;6.744;2022-11-04T01:13:35;38.60;;;36.72;;
57655;SDS011;43482;53.334;6.744;2022-11-04T01:16:03;35.85;;;34.30;;
57655;SDS011;43482;53.334;6.744;2022-11-04T01:18:33;34.83;;;33.50;;
57655;SDS011;43482;53.334;6.744;2022-11-04T01:21:02;40.42;;;38.85;;
57655;SDS011;43482;53.334;6.744;2022-11-04T01:23:29;34.13;;;32.83;;
57655;SDS011;43482;53.334;6.744;2022-11-04T01:25:55;33.20;;;31.77;;
57655;SDS011;43482;53.334;6.744;2022-11-04T01:28:20;36.60;;;35.28;;
57655;SDS011;43482;53.334;6.744;2022-11-04T01:30:45;28.73;;;27.67;;
57655;SDS011;43482;53.334;6.744;2022-11-04T01:33:11;32.17;;;31.00;;
57655;SDS011;43482;53.334;6.744;2022-11-04T01:35:36;30.48;;;29.38;;
57655;SDS011;43482;53.334;6.744;2022-11-04T01:38:02;28.33;;;27.35;;
57655;SDS011;43482;53.334;6.744;2022-11-04T01:40:28;25.40;;;24.45;;
57655;SDS011;43482;53.334;6.744;2022-11-04T01:42:53;26.50;;;25.55;;
57655;SDS011;43482;53.334;6.744;2022-11-04T01:45:19;25.48;;;24.58;;
57655;SDS011;43482;53.334;6.744;2022-11-04T01:47:51;23.42;;;22.58;;
57655;SDS011;43482;53.334;6.744;2022-11-04T01:50:26;23.25;;;22.40;;
57655;SDS011;43482;53.334;6.744;2022-11-04T01:53:10;24.25;;;23.38;;
57655;SDS011;43482;53.334;6.744;2022-11-04T01:55:42;21.83;;;20.88;;
57655;SDS011;43482;53.334;6.744;2022-11-04T01:58:14;21.63;;;20.85;;
57655;SDS011;43482;53.334;6.744;2022-11-04T02:00:42;21.88;;;21.10;;
57655;SDS011;43482;53.334;6.744;2022-11-04T02:03:15;25.40;;;24.45;;
57655;SDS011;43482;53.334;6.744;2022-11-04T02:05:45;21.23;;;20.48;;
57655;SDS011;43482;53.334;6.744;2022-11-04T02:08:11;24.55;;;23.70;;
57655;SDS011;43482;53.334;6.744;2022-11-04T02:10:39;25.63;;;24.52;;
57655;SDS011;43482;53.334;6.744;2022-11-04T02:13:07;26.08;;;24.50;;
57655;SDS011;43482;53.334;6.744;2022-11-04T02:15:48;25.63;;;24.70;;
57655;SDS011;43482;53.334;6.744;2022-11-04T02:21:16;22.17;;;21.35;;
57655;SDS011;43482;53.334;6.744;2022-11-04T02:29:24;25.70;;;24.75;;
57655;SDS011;43482;53.334;6.744;2022-11-04T02:35:33;27.75;;;26.70;;
57655;SDS011;43482;53.334;6.744;2022-11-04T02:46:29;27.48;;;26.48;;
57655;SDS011;43482;53.334;6.744;2022-11-04T02:49:07;24.70;;;23.75;;
57655;SDS011;43482;53.334;6.744;2022-11-04T02:51:47;26.83;;;25.80;;
57655;SDS011;43482;53.334;6.744;2022-11-04T02:55:01;32.72;;;31.60;;
57655;SDS011;43482;53.334;6.744;2022-11-04T02:57:34;25.02;;;23.95;;
57655;SDS011;43482;53.334;6.744;2022-11-04T03:00:04;44.53;;;42.83;;
57655;SDS011;43482;53.334;6.744;2022-11-04T03:02:44;41.45;;;39.28;;
57655;SDS011;43482;53.334;6.744;2022-11-04T03:05:16;24.13;;;23.23;;
57655;SDS011;43482;53.334;6.744;2022-11-04T03:07:45;35.75;;;34.50;;
57655;SDS011;43482;53.334;6.744;2022-11-04T03:10:15;32.90;;;30.77;;
57655;SDS011;43482;53.334;6.744;2022-11-04T03:12:47;27.15;;;26.20;;
57655;SDS011;43482;53.334;6.744;2022-11-04T03:15:23;28.92;;;27.90;;
57655;SDS011;43482;53.334;6.744;2022-11-04T03:17:57;25.65;;;24.67;;
57655;SDS011;43482;53.334;6.744;2022-11-04T03:20:32;27.38;;;26.20;;
57655;SDS011;43482;53.334;6.744;2022-11-04T03:23:00;32.08;;;30.92;;
57655;SDS011;43482;53.334;6.744;2022-11-04T03:25:28;35.03;;;33.53;;
57655;SDS011;43482;53.334;6.744;2022-11-04T03:30:38;29.85;;;28.45;;
57655;SDS011;43482;53.334;6.744;2022-11-04T03:33:11;25.33;;;23.83;;
57655;SDS011;43482;53.334;6.744;2022-11-04T03:35:46;51.80;;;49.83;;
57655;SDS011;43482;53.334;6.744;2022-11-04T03:38:11;35.63;;;33.40;;
57655;SDS011;43482;53.334;6.744;2022-11-04T03:40:37;108.90;;;104.65;;
57655;SDS011;43482;53.334;6.744;2022-11-04T03:43:07;39.53;;;38.10;;
57655;SDS011;43482;53.334;6.744;2022-11-04T03:45:36;30.10;;;29.02;;
57655;SDS011;43482;53.334;6.744;2022-11-04T03:48:03;31.23;;;30.10;;
57655;SDS011;43482;53.334;6.744;2022-11-04T03:50:30;32.45;;;31.30;;
57655;SDS011;43482;53.334;6.744;2022-11-04T03:52:57;30.33;;;29.08;;
57655;SDS011;43482;53.334;6.744;2022-11-04T03:55:23;33.60;;;32.40;;
57655;SDS011;43482;53.334;6.744;2022-11-04T03:58:06;33.05;;;31.88;;
57655;SDS011;43482;53.334;6.744;2022-11-04T04:00:43;36.28;;;34.97;;
57655;SDS011;43482;53.334;6.744;2022-11-04T04:03:17;33.90;;;32.70;;
57655;SDS011;43482;53.334;6.744;2022-11-04T04:05:59;39.47;;;37.95;;
57655;SDS011;43482;53.334;6.744;2022-11-04T04:08:43;32.60;;;31.45;;
57655;SDS011;43482;53.334;6.744;2022-11-04T04:19:03;31.58;;;30.20;;
57655;SDS011;43482;53.334;6.744;2022-11-04T04:21:36;27.83;;;26.80;;
57655;SDS011;43482;53.334;6.744;2022-11-04T04:24:08;30.55;;;29.50;;
57655;SDS011;43482;53.334;6.744;2022-11-04T04:26:54;32.40;;;31.23;;
57655;SDS011;43482;53.334;6.744;2022-11-04T04:29:41;35.85;;;34.55;;
57655;SDS011;43482;53.334;6.744;2022-11-04T04:32:09;30.70;;;29.30;;
57655;SDS011;43482;53.334;6.744;2022-11-04T04:34:35;33.28;;;31.92;;
57655;SDS011;43482;53.334;6.744;2022-11-04T04:37:02;32.58;;;31.38;;
57655;SDS011;43482;53.334;6.744;2022-11-04T04:39:36;29.00;;;27.98;;
57655;SDS011;43482;53.334;6.744;2022-11-04T04:42:25;21.20;;;20.45;;
57655;SDS011;43482;53.334;6.744;2022-11-04T04:45:18;21.60;;;20.77;;
57655;SDS011;43482;53.334;6.744;2022-11-04T04:47:50;23.98;;;22.95;;
57655;SDS011;43482;53.334;6.744;2022-11-04T04:50:16;26.90;;;25.95;;
57655;SDS011;43482;53.334;6.744;2022-11-04T04:52:45;21.50;;;20.70;;
57655;SDS011;43482;53.334;6.744;2022-11-04T04:55:16;19.13;;;18.30;;
57655;SDS011;43482;53.334;6.744;2022-11-04T04:57:42;19.38;;;18.67;;
57655;SDS011;43482;53.334;6.744;2022-11-04T05:00:08;22.65;;;21.83;;
57655;SDS011;43482;53.334;6.744;2022-11-04T05:02:36;19.02;;;18.38;;
57655;SDS011;43482;53.334;6.744;2022-11-04T05:05:01;15.50;;;14.98;;
57655;SDS011;43482;53.334;6.744;2022-11-04T05:07:27;21.77;;;21.00;;
57655;SDS011;43482;53.334;6.744;2022-11-04T05:09:53;20.70;;;19.90;;
57655;SDS011;43482;53.334;6.744;2022-11-04T05:12:18;19.88;;;19.15;;
57655;SDS011;43482;53.334;6.744;2022-11-04T05:14:43;20.02;;;19.30;;
57655;SDS011;43482;53.334;6.744;2022-11-04T05:17:09;19.90;;;18.77;;
57655;SDS011;43482;53.334;6.744;2022-11-04T05:19:34;19.90;;;19.20;;
57655;SDS011;43482;53.334;6.744;2022-11-04T05:22:00;22.60;;;21.83;;
57655;SDS011;43482;53.334;6.744;2022-11-04T05:24:25;22.25;;;21.45;;
57655;SDS011;43482;53.334;6.744;2022-11-04T05:26:50;24.92;;;23.45;;
57655;SDS011;43482;53.334;6.744;2022-11-04T05:29:16;23.42;;;22.60;;
57655;SDS011;43482;53.334;6.744;2022-11-04T05:31:42;22.40;;;21.55;;
57655;SDS011;43482;53.334;6.744;2022-11-04T05:34:09;24.95;;;24.08;;
57655;SDS011;43482;53.334;6.744;2022-11-04T05:36:35;27.20;;;26.00;;
57655;SDS011;43482;53.334;6.744;2022-11-04T05:39:01;26.00;;;25.05;;
57655;SDS011;43482;53.334;6.744;2022-11-04T05:41:27;25.48;;;24.55;;
57655;SDS011;43482;53.334;6.744;2022-11-04T05:43:56;27.45;;;26.50;;
57655;SDS011;43482;53.334;6.744;2022-11-04T05:46:23;24.73;;;23.85;;
57655;SDS011;43482;53.334;6.744;2022-11-04T05:48:50;23.63;;;22.80;;
57655;SDS011;43482;53.334;6.744;2022-11-04T05:51:17;24.00;;;23.13;;
57655;SDS011;43482;53.334;6.744;2022-11-04T05:53:44;25.98;;;25.08;;
57655;SDS011;43482;53.334;6.744;2022-11-04T05:56:10;20.90;;;20.13;;
57655;SDS011;43482;53.334;6.744;2022-11-04T05:58:36;23.65;;;22.77;;
57655;SDS011;43482;53.334;6.744;2022-11-04T06:03:54;18.08;;;17.42;;
57655;SDS011;43482;53.334;6.744;2022-11-04T06:06:21;16.67;;;16.05;;
57655;SDS011;43482;53.334;6.744;2022-11-04T06:08:48;21.67;;;20.75;;
57655;SDS011;43482;53.334;6.744;2022-11-04T06:11:14;19.83;;;19.13;;
57655;SDS011;43482;53.334;6.744;2022-11-04T06:13:39;22.75;;;21.95;;
57655;SDS011;43482;53.334;6.744;2022-11-04T06:16:05;23.45;;;22.60;;
57655;SDS011;43482;53.334;6.744;2022-11-04T06:18:31;23.65;;;22.73;;
57655;SDS011;43482;53.334;6.744;2022-11-04T06:23:53;16.92;;;15.63;;
57655;SDS011;43482;53.334;6.744;2022-11-04T06:26:21;18.20;;;17.55;;
57655;SDS011;43482;53.334;6.744;2022-11-04T06:28:47;18.27;;;17.63;;
57655;SDS011;43482;53.334;6.744;2022-11-04T06:31:13;17.60;;;16.98;;
57655;SDS011;43482;53.334;6.744;2022-11-04T06:33:40;22.13;;;21.15;;
57655;SDS011;43482;53.334;6.744;2022-11-04T06:36:06;21.50;;;20.73;;
57655;SDS011;43482;53.334;6.744;2022-11-04T06:38:34;20.42;;;19.30;;
57655;SDS011;43482;53.334;6.744;2022-11-04T06:41:07;19.63;;;18.75;;
57655;SDS011;43482;53.334;6.744;2022-11-04T06:43:36;21.13;;;20.38;;
57655;SDS011;43482;53.334;6.744;2022-11-04T06:46:01;25.05;;;23.25;;
57655;SDS011;43482;53.334;6.744;2022-11-04T06:48:28;27.23;;;25.48;;
57655;SDS011;43482;53.334;6.744;2022-11-04T06:50:55;25.85;;;24.75;;
57655;SDS011;43482;53.334;6.744;2022-11-04T06:53:24;27.65;;;26.17;;
57655;SDS011;43482;53.334;6.744;2022-11-04T06:55:50;25.65;;;24.15;;
57655;SDS011;43482;53.334;6.744;2022-11-04T06:58:16;24.55;;;23.52;;
57655;SDS011;43482;53.334;6.744;2022-11-04T07:00:42;22.58;;;21.63;;
57655;SDS011;43482;53.334;6.744;2022-11-04T07:03:08;23.95;;;22.83;;
57655;SDS011;43482;53.334;6.744;2022-11-04T07:05:34;23.52;;;22.63;;
57655;SDS011;43482;53.334;6.744;2022-11-04T07:08:00;23.65;;;22.55;;
57655;SDS011;43482;53.334;6.744;2022-11-04T07:10:25;16.98;;;16.27;;
57655;SDS011;43482;53.334;6.744;2022-11-04T07:12:50;22.17;;;20.48;;
57655;SDS011;43482;53.334;6.744;2022-11-04T07:15:16;29.27;;;28.02;;
57655;SDS011;43482;53.334;6.744;2022-11-04T07:17:41;27.35;;;26.35;;
57655;SDS011;43482;53.334;6.744;2022-11-04T07:20:08;28.52;;;27.48;;
57655;SDS011;43482;53.334;6.744;2022-11-04T07:22:37;28.60;;;27.20;;
57655;SDS011;43482;53.334;6.744;2022-11-04T07:25:02;26.65;;;25.73;;
57655;SDS011;43482;53.334;6.744;2022-11-04T07:27:28;33.33;;;32.17;;
57655;SDS011;43482;53.334;6.744;2022-11-04T07:29:53;27.23;;;26.27;;
57655;SDS011;43482;53.334;6.744;2022-11-04T07:32:19;32.63;;;31.45;;
57655;SDS011;43482;53.334;6.744;2022-11-04T07:34:44;32.35;;;31.20;;
57655;SDS011;43482;53.334;6.744;2022-11-04T07:37:09;39.38;;;37.92;;
57655;SDS011;43482;53.334;6.744;2022-11-04T07:39:35;54.38;;;52.38;;
57655;SDS011;43482;53.334;6.744;2022-11-04T07:42:00;63.85;;;61.50;;
57655;SDS011;43482;53.334;6.744;2022-11-04T07:44:25;47.65;;;45.55;;
57655;SDS011;43482;53.334;6.744;2022-11-04T07:46:51;24.05;;;22.92;;
57655;SDS011;43482;53.334;6.744;2022-11-04T07:49:16;20.58;;;19.83;;
57655;SDS011;43482;53.334;6.744;2022-11-04T07:51:41;12.23;;;11.77;;
57655;SDS011;43482;53.334;6.744;2022-11-04T07:54:07;4.82;;;4.63;;
57655;SDS011;43482;53.334;6.744;2022-11-04T07:56:32;4.15;;;3.95;;
57655;SDS011;43482;53.334;6.744;2022-11-04T07:58:57;4.45;;;4.03;;
57655;SDS011;43482;53.334;6.744;2022-11-04T08:01:23;14.07;;;8.48;;
57655;SDS011;43482;53.334;6.744;2022-11-04T08:03:49;32.00;;;14.35;;
57655;SDS011;43482;53.334;6.744;2022-11-04T08:06:16;56.08;;;21.38;;
57655;SDS011;43482;53.334;6.744;2022-11-04T08:08:42;92.65;;;30.13;;
57655;SDS011;43482;53.334;6.744;2022-11-04T08:11:18;12.18;;;11.27;;
57655;SDS011;43482;53.334;6.744;2022-11-04T08:13:45;7.10;;;6.30;;
57655;SDS011;43482;53.334;6.744;2022-11-04T08:16:12;4.93;;;4.53;;
57655;SDS011;43482;53.334;6.744;2022-11-04T08:18:40;5.97;;;3.72;;
57655;SDS011;43482;53.334;6.744;2022-11-04T08:21:07;2.50;;;1.98;;
57655;SDS011;43482;53.334;6.744;2022-11-04T08:23:33;3.42;;;2.60;;
57655;SDS011;43482;53.334;6.744;2022-11-04T08:25:58;2.00;;;1.90;;
57655;SDS011;43482;53.334;6.744;2022-11-04T08:28:25;2.40;;;2.30;;
57655;SDS011;43482;53.334;6.744;2022-11-04T08:33:38;2.17;;;2.08;;
57655;SDS011;43482;53.334;6.744;2022-11-04T08:36:04;2.15;;;2.05;;
57655;SDS011;43482;53.334;6.744;2022-11-04T08:38:36;2.42;;;2.13;;
57655;SDS011;43482;53.334;6.744;2022-11-04T08:41:03;2.10;;;2.00;;
57655;SDS011;43482;53.334;6.744;2022-11-04T08:43:30;3.72;;;3.53;;
57655;SDS011;43482;53.334;6.744;2022-11-04T08:45:55;3.22;;;3.00;;
57655;SDS011;43482;53.334;6.744;2022-11-04T08:48:21;2.30;;;2.10;;
57655;SDS011;43482;53.334;6.744;2022-11-04T08:50:47;2.47;;;0.90;;
57655;SDS011;43482;53.334;6.744;2022-11-04T08:53:14;3.25;;;0.90;;
57655;SDS011;43482;53.334;6.744;2022-11-04T08:55:40;1.38;;;0.70;;
57655;SDS011;43482;53.334;6.744;2022-11-04T08:58:05;7.28;;;3.22;;
57655;SDS011;43482;53.334;6.744;2022-11-04T09:00:30;17.67;;;1.20;;
57655;SDS011;43482;53.334;6.744;2022-11-04T09:02:57;1.80;;;0.50;;
57655;SDS011;43482;53.334;6.744;2022-11-04T09:05:22;2.67;;;1.13;;
57655;SDS011;43482;53.334;6.744;2022-11-04T09:07:48;0.73;;;0.47;;
57655;SDS011;43482;53.334;6.744;2022-11-04T09:10:13;0.60;;;0.40;;
57655;SDS011;43482;53.334;6.744;2022-11-04T09:12:39;0.73;;;0.45;;
57655;SDS011;43482;53.334;6.744;2022-11-04T09:15:06;1.52;;;0.50;;
57655;SDS011;43482;53.334;6.744;2022-11-04T09:17:32;0.30;;;0.30;;
57655;SDS011;43482;53.334;6.744;2022-11-04T09:19:57;1.00;;;0.40;;
57655;SDS011;43482;53.334;6.744;2022-11-04T09:22:23;3.05;;;0.50;;
57655;SDS011;43482;53.334;6.744;2022-11-04T09:24:48;2.40;;;0.70;;
57655;SDS011;43482;53.334;6.744;2022-11-04T09:27:13;1.27;;;0.60;;
57655;SDS011;43482;53.334;6.744;2022-11-04T09:29:39;5.28;;;0.75;;
57655;SDS011;43482;53.334;6.744;2022-11-04T09:32:05;1.13;;;0.50;;
57655;SDS011;43482;53.334;6.744;2022-11-04T09:34:31;1.60;;;0.50;;
57655;SDS011;43482;53.334;6.744;2022-11-04T09:36:57;2.17;;;0.77;;
57655;SDS011;43482;53.334;6.744;2022-11-04T09:39:23;1.52;;;0.65;;
57655;SDS011;43482;53.334;6.744;2022-11-04T09:44:32;1.58;;;0.57;;
57655;SDS011;43482;53.334;6.744;2022-11-04T09:47:19;1.38;;;0.70;;
57655;SDS011;43482;53.334;6.744;2022-11-04T09:49:46;1.40;;;0.75;;
57655;SDS011;43482;53.334;6.744;2022-11-04T09:52:20;2.05;;;0.80;;
57655;SDS011;43482;53.334;6.744;2022-11-04T09:55:11;0.80;;;0.70;;
57655;SDS011;43482;53.334;6.744;2022-11-04T09:57:38;1.38;;;0.98;;
57655;SDS011;43482;53.334;6.744;2022-11-04T10:00:04;1.33;;;1.23;;
57655;SDS011;43482;53.334;6.744;2022-11-04T10:02:38;3.03;;;1.42;;
57655;SDS011;43482;53.334;6.744;2022-11-04T10:05:13;2.25;;;0.77;;
57655;SDS011;43482;53.334;6.744;2022-11-04T10:07:55;1.88;;;0.85;;
57655;SDS011;43482;53.334;6.744;2022-11-04T10:10:34;1.40;;;1.10;;
57655;SDS011;43482;53.334;6.744;2022-11-04T10:13:11;1.88;;;1.48;;
57655;SDS011;43482;53.334;6.744;2022-11-04T10:15:49;3.72;;;2.00;;
57655;SDS011;43482;53.334;6.744;2022-11-04T10:29:00;4.38;;;4.05;;
57655;SDS011;43482;53.334;6.744;2022-11-04T10:31:29;8.88;;;8.57;;
57655;SDS011;43482;53.334;6.744;2022-11-04T10:33:58;4.93;;;4.72;;
57655;SDS011;43482;53.334;6.744;2022-11-04T10:36:29;3.17;;;1.23;;
57655;SDS011;43482;53.334;6.744;2022-11-04T10:38:55;3.75;;;3.58;;
57655;SDS011;43482;53.334;6.744;2022-11-04T10:44:06;2.45;;;1.05;;
57655;SDS011;43482;53.334;6.744;2022-11-04T10:52:05;3.55;;;1.13;;
57655;SDS011;43482;53.334;6.744;2022-11-04T10:54:33;25.70;;;14.35;;
57655;SDS011;43482;53.334;6.744;2022-11-04T10:57:04;1.63;;;1.52;;
57655;SDS011;43482;53.334;6.744;2022-11-04T10:59:31;1.80;;;1.70;;
57655;SDS011;43482;53.334;6.744;2022-11-04T11:05:20;3.45;;;3.10;;
57655;SDS011;43482;53.334;6.744;2022-11-04T11:07:49;3.90;;;3.70;;
57655;SDS011;43482;53.334;6.744;2022-11-04T11:12:42;4.85;;;4.43;;
57655;SDS011;43482;53.334;6.744;2022-11-04T11:15:24;5.40;;;5.10;;
57655;SDS011;43482;53.334;6.744;2022-11-04T11:18:02;4.45;;;4.25;;
57655;SDS011;43482;53.334;6.744;2022-11-04T11:20:37;13.38;;;7.22;;
57655;SDS011;43482;53.334;6.744;2022-11-04T11:23:04;111.45;;;30.17;;
57655;SDS011;43482;53.334;6.744;2022-11-04T11:25:50;2.88;;;2.40;;
57655;SDS011;43482;53.334;6.744;2022-11-04T11:28:22;31.15;;;9.07;;
57655;SDS011;43482;53.334;6.744;2022-11-04T11:30:59;2.80;;;1.10;;
57655;SDS011;43482;53.334;6.744;2022-11-04T11:38:30;11.90;;;5.82;;
57655;SDS011;43482;53.334;6.744;2022-11-04T11:41:02;3.60;;;2.50;;
57655;SDS011;43482;53.334;6.744;2022-11-04T11:43:34;9.32;;;5.63;;
57655;SDS011;43482;53.334;6.744;2022-11-04T11:46:02;5.63;;;4.28;;
57655;SDS011;43482;53.334;6.744;2022-11-04T11:51:04;6.38;;;4.47;;
57655;SDS011;43482;53.334;6.744;2022-11-04T11:53:30;5.60;;;5.20;;
57655;SDS011;43482;53.334;6.744;2022-11-04T11:56:22;5.20;;;4.90;;
57655;SDS011;43482;53.334;6.744;2022-11-04T11:58:54;5.68;;;5.38;;
57655;SDS011;43482;53.334;6.744;2022-11-04T12:01:40;5.22;;;4.93;;
57655;SDS011;43482;53.334;6.744;2022-11-04T12:04:10;13.00;;;8.20;;
57655;SDS011;43482;53.334;6.744;2022-11-04T12:09:24;12.65;;;12.00;;
57655;SDS011;43482;53.334;6.744;2022-11-04T12:20:40;30.25;;;27.58;;
57655;SDS011;43482;53.334;6.744;2022-11-04T12:23:30;29.55;;;27.98;;
57655;SDS011;43482;53.334;6.744;2022-11-04T12:37:22;7.57;;;7.28;;
57655;SDS011;43482;53.334;6.744;2022-11-04T12:40:19;5.57;;;5.28;;
57655;SDS011;43482;53.334;6.744;2022-11-04T12:42:56;5.75;;;5.45;;
57655;SDS011;43482;53.334;6.744;2022-11-04T12:53:41;9.13;;;8.43;;
57655;SDS011;43482;53.334;6.744;2022-11-04T12:56:30;7.30;;;6.97;;
57655;SDS011;43482;53.334;6.744;2022-11-04T13:04:17;6.33;;;5.83;;
57655;SDS011;43482;53.334;6.744;2022-11-04T13:06:53;4.30;;;4.10;;
57655;SDS011;43482;53.334;6.744;2022-11-04T13:09:47;5.18;;;4.50;;
57655;SDS011;43482;53.334;6.744;2022-11-04T13:12:24;6.55;;;6.15;;
57655;SDS011;43482;53.334;6.744;2022-11-04T13:17:52;6.45;;;5.55;;
57655;SDS011;43482;53.334;6.744;2022-11-04T13:20:28;6.20;;;5.18;;
57655;SDS011;43482;53.334;6.744;2022-11-04T13:23:09;4.55;;;3.22;;
57655;SDS011;43482;53.334;6.744;2022-11-04T13:25:41;5.57;;;4.15;;
57655;SDS011;43482;53.334;6.744;2022-11-04T13:28:10;5.32;;;5.03;;
57655;SDS011;43482;53.334;6.744;2022-11-04T13:33:20;6.80;;;5.10;;
57655;SDS011;43482;53.334;6.744;2022-11-04T13:38:43;5.72;;;5.32;;
57655;SDS011;43482;53.334;6.744;2022-11-04T13:45:05;11.85;;;7.35;;
57655;SDS011;43482;53.334;6.744;2022-11-04T13:47:02;6.65;;;5.72;;
57655;SDS011;43482;53.334;6.744;2022-11-04T13:49:31;7.65;;;6.57;;
57655;SDS011;43482;53.334;6.744;2022-11-04T13:52:02;9.33;;;8.97;;
57655;SDS011;43482;53.334;6.744;2022-11-04T14:02:36;11.55;;;11.00;;
57655;SDS011;43482;53.334;6.744;2022-11-04T14:16:01;17.35;;;16.50;;
57655;SDS011;43482;53.334;6.744;2022-11-04T14:18:48;27.27;;;26.10;;
57655;SDS011;43482;53.334;6.744;2022-11-04T14:21:19;27.08;;;25.50;;
57655;SDS011;43482;53.334;6.744;2022-11-04T14:23:55;24.20;;;22.95;;
57655;SDS011;43482;53.334;6.744;2022-11-04T14:29:05;13.93;;;13.37;;
57655;SDS011;43482;53.334;6.744;2022-11-04T14:31:54;10.30;;;9.90;;
57655;SDS011;43482;53.334;6.744;2022-11-04T14:36:54;8.90;;;8.45;;
57655;SDS011;43482;53.334;6.744;2022-11-04T14:39:22;6.82;;;6.43;;
57655;SDS011;43482;53.334;6.744;2022-11-04T14:41:58;6.85;;;6.45;;
57655;SDS011;43482;53.334;6.744;2022-11-04T14:47:12;8.65;;;8.13;;
57655;SDS011;43482;53.334;6.744;2022-11-04T14:49:43;6.25;;;5.75;;
57655;SDS011;43482;53.334;6.744;2022-11-04T14:52:36;5.65;;;5.25;;
57655;SDS011;43482;53.334;6.744;2022-11-04T14:57:39;9.10;;;8.50;;
57655;SDS011;43482;53.334;6.744;2022-11-04T15:00:27;9.55;;;8.95;;
57655;SDS011;43482;53.334;6.744;2022-11-04T15:05:51;10.35;;;9.95;;
57655;SDS011;43482;53.334;6.744;2022-11-04T15:14:11;9.57;;;8.82;;
57655;SDS011;43482;53.334;6.744;2022-11-04T15:16:48;11.05;;;10.45;;
57655;SDS011;43482;53.334;6.744;2022-11-04T15:19:24;14.27;;;12.07;;
57655;SDS011;43482;53.334;6.744;2022-11-04T15:21:53;11.90;;;11.45;;
57655;SDS011;43482;53.334;6.744;2022-11-04T15:24:19;14.60;;;13.90;;
57655;SDS011;43482;53.334;6.744;2022-11-04T15:26:49;13.38;;;12.88;;
57655;SDS011;43482;53.334;6.744;2022-11-04T15:29:16;14.20;;;13.55;;
57655;SDS011;43482;53.334;6.744;2022-11-04T15:31:51;14.80;;;14.18;;
57655;SDS011;43482;53.334;6.744;2022-11-04T15:34:18;15.43;;;14.10;;
57655;SDS011;43482;53.334;6.744;2022-11-04T15:36:44;17.55;;;16.77;;
57655;SDS011;43482;53.334;6.744;2022-11-04T15:39:13;19.02;;;17.67;;
57655;SDS011;43482;53.334;6.744;2022-11-04T15:41:42;16.13;;;15.27;;
57655;SDS011;43482;53.334;6.744;2022-11-04T15:44:29;15.75;;;14.57;;
57655;SDS011;43482;53.334;6.744;2022-11-04T15:46:57;17.80;;;16.98;;
57655;SDS011;43482;53.334;6.744;2022-11-04T15:49:28;18.25;;;17.23;;
57655;SDS011;43482;53.334;6.744;2022-11-04T15:52:15;20.42;;;19.55;;
57655;SDS011;43482;53.334;6.744;2022-11-04T15:54:50;20.38;;;19.02;;
57655;SDS011;43482;53.334;6.744;2022-11-04T15:57:21;21.50;;;20.55;;
57655;SDS011;43482;53.334;6.744;2022-11-04T16:02:50;27.77;;;26.80;;
57655;SDS011;43482;53.334;6.744;2022-11-04T16:07:36;34.88;;;32.97;;
57655;SDS011;43482;53.334;6.744;2022-11-04T16:10:20;39.00;;;37.00;;
57655;SDS011;43482;53.334;6.744;2022-11-04T16:12:53;36.58;;;34.40;;
57655;SDS011;43482;53.334;6.744;2022-11-04T16:18:23;37.75;;;36.17;;
57655;SDS011;43482;53.334;6.744;2022-11-04T16:20:53;45.75;;;44.03;;
57655;SDS011;43482;53.334;6.744;2022-11-04T16:23:22;51.55;;;49.30;;
57655;SDS011;43482;53.334;6.744;2022-11-04T16:25:55;58.80;;;56.13;;
57655;SDS011;43482;53.334;6.744;2022-11-04T16:28:23;58.50;;;56.03;;
57655;SDS011;43482;53.334;6.744;2022-11-04T16:30:58;63.55;;;61.00;;
57655;SDS011;43482;53.334;6.744;2022-11-04T16:33:25;64.40;;;61.80;;
57655;SDS011;43482;53.334;6.744;2022-11-04T16:35:51;72.60;;;69.85;;
57655;SDS011;43482;53.334;6.744;2022-11-04T16:38:16;78.38;;;75.22;;
57655;SDS011;43482;53.334;6.744;2022-11-04T16:40:42;77.05;;;73.95;;
57655;SDS011;43482;53.334;6.744;2022-11-04T16:43:09;79.72;;;76.28;;
57655;SDS011;43482;53.334;6.744;2022-11-04T16:45:36;80.82;;;77.35;;
57655;SDS011;43482;53.334;6.744;2022-11-04T16:48:02;87.32;;;82.80;;
57655;SDS011;43482;53.334;6.744;2022-11-04T16:50:28;114.22;;;105.70;;
57655;SDS011;43482;53.334;6.744;2022-11-04T16:52:56;103.70;;;97.80;;
57655;SDS011;43482;53.334;6.744;2022-11-04T16:55:21;95.43;;;91.45;;
57655;SDS011;43482;53.334;6.744;2022-11-04T16:57:54;94.03;;;90.28;;
57655;SDS011;43482;53.334;6.744;2022-11-04T17:00:26;108.97;;;103.45;;
57655;SDS011;43482;53.334;6.744;2022-11-04T17:02:52;110.68;;;104.20;;
57655;SDS011;43482;53.334;6.744;2022-11-04T17:05:17;117.90;;;109.57;;
57655;SDS011;43482;53.334;6.744;2022-11-04T17:07:44;98.32;;;93.38;;
57655;SDS011;43482;53.334;6.744;2022-11-04T17:10:14;91.90;;;87.97;;
57655;SDS011;43482;53.334;6.744;2022-11-04T17:12:43;85.90;;;82.63;;
57655;SDS011;43482;53.334;6.744;2022-11-04T17:15:09;82.70;;;79.53;;
57655;SDS011;43482;53.334;6.744;2022-11-04T17:17:36;93.57;;;90.20;;
57655;SDS011;43482;53.334;6.744;2022-11-04T17:20:02;86.80;;;83.38;;
57655;SDS011;43482;53.334;6.744;2022-11-04T17:22:29;84.90;;;81.65;;
57655;SDS011;43482;53.334;6.744;2022-11-04T17:24:56;89.82;;;86.60;;
57655;SDS011;43482;53.334;6.744;2022-11-04T17:27:21;96.07;;;92.65;;
57655;SDS011;43482;53.334;6.744;2022-11-04T17:29:47;88.63;;;85.00;;
57655;SDS011;43482;53.334;6.744;2022-11-04T17:32:12;85.43;;;82.13;;
57655;SDS011;43482;53.334;6.744;2022-11-04T17:34:37;84.53;;;81.50;;